Time;durP1;ratioP1;P1;durP2;ratioP2;P2;SDS_P1;SDS_P2;PMS_P1;PMS_P2;Temp;Humidity;BMP_temperature;BMP_pressure;BME280_temperature;BME280_humidity;BME280_pressure;Samples;Min_cycle;Max_cycle;Signal;HPM_P1;HPM_P2
2023/12/07 00:01:24;;;;;;;21.37;15.90;;;3.00;99.90;;;;;;5028577;28;20385;-56
2023/12/07 00:03:50;;;;;;;21.93;15.57;;;3.00;99.90;;;;;;5035981;28;20219;-53
2023/12/07 00:06:16;;;;;;;21.13;16.03;;;3.00;99.90;;;;;;5032772;28;20212;-69
2023/12/07 00:08:41;;;;;;;20.53;16.50;;;3.00;99.90;;;;;;5034572;28;20208;-54
2023/12/07 00:11:07;;;;;;;21.00;14.53;;;3.00;99.90;;;;;;5034602;28;20238;-54
2023/12/07 00:13:32;;;;;;;23.47;16.50;;;3.10;99.90;;;;;;5034010;28;20210;-54
2023/12/07 00:15:58;;;;;;;19.47;15.50;;;3.00;99.90;;;;;;5032027;28;20207;-53
2023/12/07 00:18:24;;;;;;;21.30;17.07;;;3.00;99.90;;;;;;5032356;28;20238;-53
2023/12/07 00:20:49;;;;;;;22.23;16.30;;;3.00;99.90;;;;;;5034538;28;20628;-54
2023/12/07 00:23:15;;;;;;;21.03;15.73;;;3.10;99.90;;;;;;5033577;28;20224;-63
2023/12/07 00:25:40;;;;;;;21.27;16.07;;;3.00;99.90;;;;;;5014400;28;20208;-54
2023/12/07 00:28:06;;;;;;;22.30;15.43;;;2.90;99.90;;;;;;5033856;28;20200;-54
2023/12/07 00:30:33;;;;;;;20.23;16.13;;;2.90;99.90;;;;;;5029751;28;20217;-55
2023/12/07 00:32:59;;;;;;;19.97;15.93;;;2.90;99.90;;;;;;5033654;28;20195;-53
2023/12/07 00:35:28;;;;;;;22.40;15.83;;;2.90;99.90;;;;;;5030914;28;20208;-55
2023/12/07 00:37:58;;;;;;;22.00;16.53;;;2.90;99.90;;;;;;5026483;28;20203;-54
2023/12/07 00:40:24;;;;;;;23.83;16.87;;;3.00;99.90;;;;;;5027676;28;20217;-54
2023/12/07 00:42:50;;;;;;;20.77;16.23;;;3.00;99.90;;;;;;5013670;28;20246;-53
2023/12/07 00:45:15;;;;;;;21.20;17.50;;;3.00;99.90;;;;;;5031727;28;20205;-54
2023/12/07 00:47:41;;;;;;;21.80;16.60;;;3.00;99.90;;;;;;5030786;28;20301;-53
2023/12/07 00:50:07;;;;;;;24.30;17.63;;;2.90;99.90;;;;;;5034077;28;20268;-53
2023/12/07 00:52:33;;;;;;;21.23;16.80;;;3.00;99.90;;;;;;5031883;28;20220;-54
2023/12/07 00:54:58;;;;;;;21.33;16.67;;;3.00;99.90;;;;;;5012299;28;20206;-53
2023/12/07 00:57:24;;;;;;;21.40;17.47;;;3.10;99.90;;;;;;5031082;28;20689;-53
2023/12/07 00:59:49;;;;;;;19.33;15.93;;;2.90;99.90;;;;;;5032191;28;20229;-53
2023/12/07 01:02:15;;;;;;;21.67;16.73;;;2.90;99.90;;;;;;5026606;28;20884;-53
2023/12/07 01:04:41;;;;;;;23.60;17.53;;;2.90;99.90;;;;;;5012979;28;20246;-53
2023/12/07 01:07:06;;;;;;;25.40;17.23;;;3.00;99.90;;;;;;5032573;28;20198;-53
2023/12/07 01:09:33;;;;;;;20.97;16.57;;;2.90;99.90;;;;;;5030632;28;20202;-52
2023/12/07 01:11:59;;;;;;;20.33;15.83;;;2.90;99.90;;;;;;5033733;28;20226;-53
2023/12/07 01:14:24;;;;;;;20.67;16.53;;;2.90;99.90;;;;;;5035148;28;20221;-53
2023/12/07 01:16:50;;;;;;;22.47;15.37;;;2.90;99.90;;;;;;5029195;28;20208;-53
2023/12/07 01:19:15;;;;;;;22.10;17.30;;;2.90;99.90;;;;;;5030093;28;21006;-54
2023/12/07 01:21:41;;;;;;;21.27;15.77;;;2.80;99.90;;;;;;5030110;28;20227;-54
2023/12/07 01:24:08;;;;;;;22.33;16.80;;;2.80;99.90;;;;;;5033338;28;20226;-53
2023/12/07 01:26:33;;;;;;;21.37;16.03;;;2.80;99.90;;;;;;5031558;28;20215;-53
2023/12/07 01:28:59;;;;;;;21.37;15.30;;;2.90;99.90;;;;;;5031102;28;20203;-52
2023/12/07 01:31:24;;;;;;;24.43;17.10;;;2.90;99.90;;;;;;5033006;28;20295;-52
2023/12/07 01:33:50;;;;;;;20.00;15.43;;;2.90;99.90;;;;;;5033480;28;20725;-55
2023/12/07 01:36:15;;;;;;;23.90;16.13;;;2.80;99.90;;;;;;5025019;28;20312;-53
2023/12/07 01:38:41;;;;;;;17.43;13.93;;;2.90;99.90;;;;;;5032248;28;20260;-52
2023/12/07 01:41:06;;;;;;;23.90;16.67;;;2.90;99.90;;;;;;5031719;28;20211;-53
2023/12/07 01:43:32;;;;;;;20.30;16.10;;;2.90;99.90;;;;;;5029577;28;20222;-52
2023/12/07 01:45:58;;;;;;;20.87;15.73;;;3.00;99.90;;;;;;5033733;28;20216;-53
2023/12/07 01:48:26;;;;;;;18.57;14.90;;;2.90;99.90;;;;;;5032417;28;20202;-53
2023/12/07 01:50:52;;;;;;;21.93;16.10;;;2.90;99.90;;;;;;5032213;28;20231;-53
2023/12/07 01:53:18;;;;;;;21.17;15.83;;;2.90;99.90;;;;;;5028513;28;20716;-53
2023/12/07 01:55:45;;;;;;;22.67;16.00;;;2.90;99.90;;;;;;5025029;28;20208;-52
2023/12/07 01:58:10;;;;;;;18.57;15.57;;;3.00;99.90;;;;;;5032378;28;20202;-53
2023/12/07 02:00:36;;;;;;;22.50;16.47;;;3.00;99.90;;;;;;5032064;28;20261;-53
2023/12/07 02:03:05;;;;;;;23.37;16.73;;;2.90;99.90;;;;;;5032178;28;20275;-53
2023/12/07 02:05:32;;;;;;;22.33;16.47;;;2.90;99.90;;;;;;5010200;28;20305;-53
2023/12/07 02:07:58;;;;;;;22.23;16.60;;;2.70;99.90;;;;;;5030482;28;20661;-54
2023/12/07 02:10:24;;;;;;;23.33;16.33;;;2.70;99.90;;;;;;5030063;28;20215;-53
2023/12/07 02:12:51;;;;;;;24.10;16.63;;;2.70;99.90;;;;;;5027953;28;20205;-53
2023/12/07 02:15:17;;;;;;;22.13;16.73;;;2.80;99.90;;;;;;5031253;28;20222;-53
2023/12/07 02:18:06;;;;;;;25.50;18.07;;;2.90;99.90;;;;;;5009548;28;20213;-53
2023/12/07 02:20:42;;;;;;;23.13;17.57;;;2.90;99.90;;;;;;5013707;28;20217;-52
2023/12/07 02:23:08;;;;;;;20.50;15.57;;;2.90;99.90;;;;;;5033334;28;20221;-53
2023/12/07 02:25:47;;;;;;;21.30;16.00;;;2.80;99.90;;;;;;5016859;28;20197;-53
2023/12/07 02:28:13;;;;;;;21.57;16.07;;;2.60;99.90;;;;;;5025984;28;20204;-53
2023/12/07 02:30:38;;;;;;;21.63;16.87;;;2.70;99.90;;;;;;5023931;28;20194;-53
2023/12/07 02:33:04;;;;;;;24.87;17.77;;;2.80;99.90;;;;;;5026403;28;20557;-53
2023/12/07 02:35:31;;;;;;;20.90;15.97;;;2.70;99.90;;;;;;5028413;28;20989;-52
2023/12/07 02:37:57;;;;;;;20.77;15.73;;;2.60;99.90;;;;;;5004991;28;20255;-53
2023/12/07 02:40:25;;;;;;;20.83;16.33;;;2.70;99.90;;;;;;5027347;28;20289;-53
2023/12/07 02:42:55;;;;;;;19.17;14.57;;;2.50;99.90;;;;;;5024657;28;20231;-54
2023/12/07 02:45:21;;;;;;;19.43;15.80;;;2.50;99.90;;;;;;5012692;28;20200;-53
2023/12/07 02:47:47;;;;;;;19.57;15.40;;;2.80;99.90;;;;;;5025854;28;20191;-53
2023/12/07 02:50:13;;;;;;;20.67;16.13;;;2.70;99.90;;;;;;5027104;28;20216;-53
2023/12/07 02:52:39;;;;;;;21.23;16.40;;;2.40;99.90;;;;;;5013587;28;20200;-53
2023/12/07 02:55:05;;;;;;;21.90;16.27;;;2.50;99.90;;;;;;5028718;28;20214;-52
2023/12/07 02:57:33;;;;;;;20.73;14.87;;;2.70;99.90;;;;;;5026043;28;20299;-53
2023/12/07 02:59:59;;;;;;;22.53;15.57;;;2.60;99.90;;;;;;5024863;28;20215;-52
2023/12/07 03:02:25;;;;;;;21.60;16.83;;;2.70;99.90;;;;;;5012134;28;20209;-53
2023/12/07 03:04:50;;;;;;;22.53;16.50;;;2.80;99.90;;;;;;5026300;28;20280;-68
2023/12/07 03:07:16;;;;;;;21.07;15.60;;;2.90;99.90;;;;;;5028129;28;20206;-54
2023/12/07 03:09:41;;;;;;;21.00;16.20;;;2.80;99.90;;;;;;5030920;28;20254;-54
2023/12/07 03:12:07;;;;;;;19.30;15.20;;;2.60;99.90;;;;;;5030273;28;20235;-51
2023/12/07 03:14:32;;;;;;;23.67;15.73;;;2.60;99.90;;;;;;5028915;28;20217;-53
2023/12/07 03:16:58;;;;;;;23.57;17.73;;;2.70;99.90;;;;;;5030219;28;20268;-52
2023/12/07 03:19:24;;;;;;;22.73;15.70;;;2.80;99.90;;;;;;5032228;28;20206;-53
2023/12/07 03:21:49;;;;;;;22.27;17.37;;;2.80;99.90;;;;;;5026024;28;20213;-54
2023/12/07 03:24:15;;;;;;;21.37;15.57;;;2.60;99.90;;;;;;5008575;28;20226;-54
2023/12/07 03:26:40;;;;;;;20.67;15.80;;;2.50;99.90;;;;;;5024541;28;20607;-54
2023/12/07 03:29:06;;;;;;;22.93;16.80;;;2.50;99.90;;;;;;5030449;28;20228;-54
2023/12/07 03:31:32;;;;;;;22.23;17.37;;;2.40;99.90;;;;;;5025193;28;20230;-53
2023/12/07 03:33:59;;;;;;;23.73;16.80;;;2.10;99.90;;;;;;5032802;28;20202;-54
2023/12/07 03:36:24;;;;;;;23.43;17.70;;;2.10;99.90;;;;;;5032212;28;20194;-53
2023/12/07 03:38:50;;;;;;;25.40;17.37;;;2.20;99.90;;;;;;5032810;28;20561;-54
2023/12/07 03:41:15;;;;;;;28.67;18.37;;;2.30;99.90;;;;;;5034284;28;20594;-54
2023/12/07 03:43:41;;;;;;;20.57;17.30;;;2.40;99.90;;;;;;5029160;28;20222;-54
2023/12/07 03:46:07;;;;;;;27.17;19.00;;;2.50;99.90;;;;;;5026313;28;20197;-54
2023/12/07 03:48:33;;;;;;;23.03;17.03;;;2.40;99.90;;;;;;5018508;28;20268;-54
2023/12/07 03:50:59;;;;;;;25.00;17.70;;;2.40;99.90;;;;;;5035117;28;20205;-54
2023/12/07 03:53:25;;;;;;;26.23;18.90;;;2.50;99.90;;;;;;5033781;28;20206;-54
2023/12/07 03:55:50;;;;;;;22.80;16.67;;;2.30;99.90;;;;;;5028998;28;20207;-53
2023/12/07 03:58:16;;;;;;;23.60;17.40;;;2.20;99.90;;;;;;5030585;28;20611;-53
2023/12/07 04:00:42;;;;;;;23.20;17.57;;;2.10;99.90;;;;;;5030893;28;20222;-54
2023/12/07 04:03:08;;;;;;;27.70;19.37;;;2.00;99.90;;;;;;5031332;28;20591;-54
2023/12/07 04:05:33;;;;;;;24.97;17.67;;;2.40;99.90;;;;;;5035079;28;20599;-54
2023/12/07 04:07:59;;;;;;;26.80;19.33;;;2.40;99.90;;;;;;5032858;28;20197;-53
2023/12/07 04:10:25;;;;;;;24.57;18.27;;;2.20;99.90;;;;;;5029010;28;20804;-53
2023/12/07 04:12:52;;;;;;;28.97;20.07;;;2.30;99.90;;;;;;5032573;28;20285;-53
2023/12/07 04:15:18;;;;;;;27.70;19.30;;;2.50;99.90;;;;;;5034383;28;20307;-52
2023/12/07 04:17:44;;;;;;;25.07;18.03;;;2.40;99.90;;;;;;5030711;28;20717;-53
2023/12/07 04:20:10;;;;;;;28.57;18.43;;;2.30;99.90;;;;;;5036011;28;20195;-54
2023/12/07 04:22:36;;;;;;;25.80;18.57;;;2.30;99.90;;;;;;5033797;28;20534;-56
2023/12/07 04:25:01;;;;;;;26.03;17.97;;;2.20;99.90;;;;;;5029679;28;20198;-54
2023/12/07 04:27:27;;;;;;;29.77;19.70;;;2.30;99.90;;;;;;5032319;28;20198;-53
2023/12/07 04:29:52;;;;;;;26.40;19.23;;;2.00;99.90;;;;;;5028675;28;20669;-53
2023/12/07 04:32:18;;;;;;;25.67;19.57;;;1.80;99.90;;;;;;5010251;28;20379;-53
2023/12/07 04:34:43;;;;;;;27.80;19.27;;;1.80;99.90;;;;;;5013994;28;20297;-53
2023/12/07 04:37:08;;;;;;;30.13;19.43;;;1.90;99.90;;;;;;5028788;28;20971;-54
2023/12/07 04:39:36;;;;;;;31.33;19.47;;;1.90;99.90;;;;;;5025780;28;20330;-53
2023/12/07 04:42:01;;;;;;;33.60;20.40;;;1.90;99.90;;;;;;5029243;28;20198;-53
2023/12/07 04:44:27;;;;;;;33.60;20.53;;;1.80;99.90;;;;;;5030400;28;20229;-53
2023/12/07 04:46:52;;;;;;;31.47;20.30;;;1.80;99.90;;;;;;5023150;28;20205;-54
2023/12/07 04:49:18;;;;;;;29.43;20.30;;;2.00;99.90;;;;;;5026060;28;20213;-54
2023/12/07 04:51:46;;;;;;;30.83;20.47;;;1.90;99.90;;;;;;5031598;28;20210;-53
2023/12/07 04:54:12;;;;;;;27.47;19.53;;;1.80;99.90;;;;;;5035550;28;20292;-53
2023/12/07 04:56:40;;;;;;;31.10;20.23;;;2.00;99.90;;;;;;5028858;28;20855;-53
2023/12/07 04:59:05;;;;;;;31.53;20.53;;;2.10;99.90;;;;;;5032310;28;20302;-54
2023/12/07 05:01:31;;;;;;;31.10;20.33;;;1.90;99.90;;;;;;5031208;28;20276;-54
2023/12/07 05:03:56;;;;;;;26.77;19.07;;;2.10;99.90;;;;;;5027112;28;20217;-54
2023/12/07 05:06:22;;;;;;;29.53;20.03;;;2.40;99.90;;;;;;5029170;28;20206;-54
2023/12/07 05:08:47;;;;;;;30.73;20.57;;;2.50;99.90;;;;;;5033229;28;20259;-54
2023/12/07 05:11:13;;;;;;;33.43;20.47;;;2.20;99.90;;;;;;5034943;28;20712;-54
2023/12/07 05:13:38;;;;;;;27.60;17.93;;;2.20;99.90;;;;;;5012450;28;20198;-54
2023/12/07 05:16:04;;;;;;;27.03;18.97;;;2.40;99.90;;;;;;5027797;28;20213;-54
2023/12/07 05:18:30;;;;;;;29.33;19.63;;;2.30;99.90;;;;;;5028580;28;20224;-53
2023/12/07 05:20:56;;;;;;;28.53;19.47;;;2.50;99.90;;;;;;5028331;28;20229;-53
2023/12/07 05:23:21;;;;;;;31.83;19.17;;;2.50;99.90;;;;;;5026287;28;20319;-53
2023/12/07 05:25:47;;;;;;;29.93;20.30;;;2.50;99.90;;;;;;5032440;28;20638;-54
2023/12/07 05:28:12;;;;;;;26.50;18.47;;;2.60;99.90;;;;;;5035005;28;20277;-53
2023/12/07 05:30:38;;;;;;;35.57;21.27;;;2.80;99.90;;;;;;5031173;28;20197;-53
2023/12/07 05:33:03;;;;;;;31.73;19.53;;;3.00;99.90;;;;;;5033082;28;20237;-53
2023/12/07 05:35:29;;;;;;;31.47;20.30;;;3.10;99.90;;;;;;5032369;28;20192;-54
2023/12/07 05:37:54;;;;;;;29.77;19.13;;;3.20;99.90;;;;;;5031761;28;20794;-54
2023/12/07 05:40:20;;;;;;;35.07;20.67;;;3.10;99.90;;;;;;5029802;28;20198;-55
2023/12/07 05:42:49;;;;;;;28.73;18.53;;;3.00;99.90;;;;;;5029671;28;20209;-53
2023/12/07 05:45:15;;;;;;;29.63;18.67;;;3.10;99.90;;;;;;5028893;28;20602;-53
2023/12/07 05:47:41;;;;;;;31.50;20.43;;;3.20;99.90;;;;;;5026274;28;20205;-53
2023/12/07 05:50:07;;;;;;;33.70;19.73;;;3.10;99.90;;;;;;5025071;28;20197;-53
2023/12/07 05:52:33;;;;;;;28.17;17.80;;;2.80;99.90;;;;;;5030279;28;20803;-53
2023/12/07 05:54:58;;;;;;;32.27;20.13;;;2.50;99.90;;;;;;5030153;28;20221;-53
2023/12/07 05:57:24;;;;;;;30.70;18.77;;;2.50;99.90;;;;;;5025611;28;20237;-53
2023/12/07 05:59:49;;;;;;;27.27;18.07;;;2.60;99.90;;;;;;5025816;28;20262;-65
2023/12/07 06:02:15;;;;;;;30.90;19.60;;;2.60;99.90;;;;;;5012572;28;20270;-55
2023/12/07 06:04:41;;;;;;;31.47;20.53;;;2.60;99.90;;;;;;5025787;28;20233;-54
2023/12/07 06:07:06;;;;;;;30.50;19.53;;;2.80;99.90;;;;;;5027260;28;20207;-55
2023/12/07 06:09:32;;;;;;;28.00;17.63;;;3.00;99.90;;;;;;5029012;28;20739;-53
2023/12/07 06:11:58;;;;;;;29.43;18.93;;;3.00;99.90;;;;;;5029383;28;20199;-54
2023/12/07 06:14:23;;;;;;;29.30;17.90;;;3.00;99.90;;;;;;5029986;28;20209;-53
2023/12/07 06:16:49;;;;;;;29.57;18.40;;;2.90;99.90;;;;;;5029858;28;20202;-53
2023/12/07 06:19:15;;;;;;;33.77;19.40;;;2.90;99.90;;;;;;5029989;28;20659;-53
2023/12/07 06:21:40;;;;;;;29.93;18.43;;;2.90;99.90;;;;;;5026962;28;20293;-54
2023/12/07 06:24:06;;;;;;;31.30;17.27;;;2.80;99.90;;;;;;5027068;28;20236;-54
2023/12/07 06:26:32;;;;;;;30.00;17.93;;;2.80;99.90;;;;;;5031528;28;20210;-54
2023/12/07 06:28:58;;;;;;;33.37;19.33;;;2.70;99.90;;;;;;5032915;28;20210;-54
2023/12/07 06:31:23;;;;;;;31.67;18.93;;;2.80;99.90;;;;;;5031015;28;20782;-54
2023/12/07 06:33:49;;;;;;;30.00;19.90;;;2.90;99.90;;;;;;5010562;28;20206;-53
2023/12/07 06:36:19;;;;;;;28.53;18.90;;;2.60;99.90;;;;;;5032058;28;20203;-54
2023/12/07 06:38:45;;;;;;;31.43;19.03;;;2.60;99.90;;;;;;5026110;28;20199;-53
2023/12/07 06:41:10;;;;;;;34.37;20.73;;;2.80;99.90;;;;;;5010317;28;20530;-53
2023/12/07 06:43:36;;;;;;;31.57;19.00;;;2.90;99.90;;;;;;5028012;28;20233;-53
2023/12/07 06:46:01;;;;;;;31.80;18.80;;;2.90;99.90;;;;;;5003409;28;20230;-53
2023/12/07 06:48:27;;;;;;;28.77;17.77;;;2.70;99.90;;;;;;5032434;28;20206;-53
2023/12/07 06:50:52;;;;;;;32.60;20.93;;;2.80;99.90;;;;;;5013426;28;20210;-54
2023/12/07 06:53:18;;;;;;;33.00;20.97;;;2.70;99.90;;;;;;5031557;28;20344;-53
2023/12/07 06:55:44;;;;;;;31.63;19.63;;;2.30;99.90;;;;;;5030064;28;20439;-54
2023/12/07 06:58:09;;;;;;;31.60;20.10;;;2.40;99.90;;;;;;5022934;28;20202;-54
2023/12/07 07:00:36;;;;;;;30.13;19.33;;;2.40;99.90;;;;;;5031002;28;20226;-53
2023/12/07 07:03:01;;;;;;;29.40;18.93;;;2.50;99.90;;;;;;5029171;28;21060;-56
2023/12/07 07:05:27;;;;;;;29.50;19.37;;;2.50;99.90;;;;;;5023770;28;20290;-55
2023/12/07 07:07:53;;;;;;;34.43;19.80;;;2.80;99.90;;;;;;5030514;28;20203;-57
2023/12/07 07:10:18;;;;;;;30.77;18.83;;;2.70;99.90;;;;;;5027146;28;20198;-54
2023/12/07 07:12:43;;;;;;;31.43;19.43;;;2.70;99.90;;;;;;5027774;28;20194;-54
2023/12/07 07:15:09;;;;;;;28.60;20.23;;;3.00;99.90;;;;;;5011987;28;20208;-67
2023/12/07 07:17:35;;;;;;;34.07;19.03;;;3.10;99.90;;;;;;5030376;28;20655;-53
2023/12/07 07:20:01;;;;;;;29.93;19.10;;;3.30;99.90;;;;;;5027086;28;20207;-54
2023/12/07 07:22:26;;;;;;;33.10;20.33;;;3.20;99.90;;;;;;5027673;28;20202;-55
2023/12/07 07:24:52;;;;;;;27.90;18.90;;;3.00;99.90;;;;;;5025580;28;20221;-56
2023/12/07 07:27:17;;;;;;;28.67;18.93;;;3.00;99.90;;;;;;5027043;28;20207;-57
2023/12/07 07:29:43;;;;;;;28.73;19.47;;;3.00;99.90;;;;;;5011886;28;20270;-55
2023/12/07 07:32:09;;;;;;;26.60;18.07;;;3.10;99.90;;;;;;5032140;28;20267;-54
2023/12/07 07:34:34;;;;;;;27.33;18.57;;;3.00;99.90;;;;;;5010343;28;20268;-54
2023/12/07 07:37:00;;;;;;;30.00;19.90;;;2.80;99.90;;;;;;5027774;28;21070;-55
2023/12/07 07:39:25;;;;;;;31.20;19.57;;;2.90;99.90;;;;;;5027858;28;20259;-67
2023/12/07 07:41:50;;;;;;;30.03;18.43;;;2.80;99.90;;;;;;5020481;28;20245;-70
2023/12/07 07:44:16;;;;;;;31.80;19.87;;;2.90;99.90;;;;;;5013533;28;20298;-55
2023/12/07 07:46:42;;;;;;;29.47;19.27;;;2.90;99.90;;;;;;5025894;28;20207;-55
2023/12/07 07:49:07;;;;;;;28.97;18.47;;;3.20;99.90;;;;;;5030324;28;20667;-55
2023/12/07 07:51:33;;;;;;;30.50;18.87;;;3.30;99.90;;;;;;5030033;28;20217;-55
2023/12/07 07:53:59;;;;;;;30.00;20.07;;;3.10;99.90;;;;;;5026665;28;20688;-55
2023/12/07 07:56:25;;;;;;;26.80;18.83;;;3.10;99.90;;;;;;5025784;28;20194;-56
2023/12/07 07:58:50;;;;;;;29.33;20.03;;;2.60;99.90;;;;;;5025448;28;20261;-64
2023/12/07 08:01:16;;;;;;;27.20;17.73;;;2.40;99.90;;;;;;5027064;28;20253;-62
2023/12/07 08:03:41;;;;;;;30.90;18.50;;;2.40;99.90;;;;;;5013972;28;20225;-63
2023/12/07 08:06:08;;;;;;;32.53;20.23;;;2.50;99.90;;;;;;5008515;28;20245;-53
2023/12/07 08:08:33;;;;;;;28.43;18.23;;;2.60;99.90;;;;;;5029871;28;20214;-53
2023/12/07 08:10:59;;;;;;;26.33;19.17;;;2.90;99.90;;;;;;5024665;28;20205;-54
2023/12/07 08:13:24;;;;;;;27.27;18.50;;;2.90;99.90;;;;;;5028256;28;20690;-54
2023/12/07 08:15:50;;;;;;;26.93;19.40;;;3.00;99.90;;;;;;5030017;28;20202;-63
2023/12/07 08:18:15;;;;;;;30.23;18.97;;;3.10;99.90;;;;;;5013496;28;20216;-53
2023/12/07 08:20:41;;;;;;;29.27;20.37;;;3.10;99.90;;;;;;5026792;28;20203;-53
2023/12/07 08:23:07;;;;;;;31.23;19.67;;;3.20;99.90;;;;;;5031388;28;20211;-54
2023/12/07 08:25:32;;;;;;;25.37;18.13;;;3.30;99.90;;;;;;5033267;28;20769;-53
2023/12/07 08:27:58;;;;;;;27.50;18.00;;;3.00;99.90;;;;;;5030611;28;20225;-53
2023/12/07 08:30:23;;;;;;;27.43;20.10;;;2.90;99.90;;;;;;5033403;28;20187;-65
2023/12/07 08:32:49;;;;;;;31.80;20.93;;;3.10;99.90;;;;;;5034471;28;20757;-64
2023/12/07 08:35:14;;;;;;;29.03;18.43;;;2.50;99.90;;;;;;5010708;28;21009;-57
2023/12/07 08:37:40;;;;;;;28.90;18.50;;;2.40;99.90;;;;;;5013321;28;20191;-58
2023/12/07 08:40:06;;;;;;;28.10;18.60;;;2.30;99.90;;;;;;5029643;28;20237;-64
2023/12/07 08:42:32;;;;;;;29.27;19.20;;;2.60;99.90;;;;;;5011009;28;20679;-57
2023/12/07 08:44:57;;;;;;;33.83;19.97;;;2.30;99.90;;;;;;5029636;28;20230;-56
2023/12/07 08:47:23;;;;;;;33.77;20.90;;;2.40;99.90;;;;;;5012519;28;20470;-55
2023/12/07 08:49:50;;;;;;;31.83;19.23;;;2.20;99.90;;;;;;5014982;28;20232;-55
2023/12/07 08:52:17;;;;;;;33.27;21.30;;;2.10;99.90;;;;;;5027202;28;20214;-55
2023/12/07 08:54:43;;;;;;;29.67;19.33;;;2.00;99.90;;;;;;5029423;28;20200;-55
2023/12/07 08:57:08;;;;;;;29.63;19.47;;;2.20;99.90;;;;;;5033294;28;20203;-60
2023/12/07 08:59:34;;;;;;;30.80;20.93;;;2.50;99.90;;;;;;5029715;28;20222;-54
2023/12/07 09:01:59;;;;;;;27.43;19.30;;;2.60;99.90;;;;;;5029331;28;20282;-54
2023/12/07 09:04:26;;;;;;;30.27;20.37;;;2.80;99.90;;;;;;5011825;28;20261;-56
2023/12/07 09:06:52;;;;;;;29.17;18.23;;;2.90;99.90;;;;;;5033802;28;20973;-56
2023/12/07 09:09:18;;;;;;;33.67;20.83;;;3.10;99.90;;;;;;5032517;28;20195;-54
2023/12/07 09:11:44;;;;;;;32.03;18.37;;;3.20;99.90;;;;;;5004397;28;20617;-56
2023/12/07 09:14:10;;;;;;;29.67;19.17;;;3.00;99.90;;;;;;5026449;28;20270;-53
2023/12/07 09:16:45;;;;;;;34.00;19.27;;;3.10;99.90;;;;;;5024750;28;20195;-55
2023/12/07 09:19:13;;;;;;;31.43;19.83;;;3.10;99.90;;;;;;5024076;28;21043;-55
2023/12/07 09:21:39;;;;;;;28.83;17.33;;;3.00;99.90;;;;;;5020505;28;20207;-54
2023/12/07 09:24:06;;;;;;;28.53;18.60;;;3.00;99.90;;;;;;5005279;28;20231;-55
2023/12/07 09:26:32;;;;;;;31.47;20.33;;;2.70;99.90;;;;;;5029713;28;20199;-54
2023/12/07 09:28:57;;;;;;;33.73;19.90;;;2.50;99.90;;;;;;5012615;28;20208;-54
2023/12/07 09:31:22;;;;;;;31.90;18.50;;;2.20;99.90;;;;;;5029035;28;20199;-66
2023/12/07 09:33:48;;;;;;;31.43;18.53;;;2.20;99.90;;;;;;5008178;28;20607;-54
2023/12/07 09:36:18;;;;;;;32.10;19.70;;;2.40;99.90;;;;;;5027687;28;20206;-55
2023/12/07 09:38:43;;;;;;;30.93;19.30;;;2.50;99.90;;;;;;5031807;28;20206;-54
2023/12/07 09:41:09;;;;;;;32.93;19.63;;;2.70;99.90;;;;;;5026413;28;20600;-54
2023/12/07 09:43:35;;;;;;;30.10;19.47;;;2.80;99.90;;;;;;5028034;28;20251;-55
2023/12/07 09:46:01;;;;;;;29.33;17.53;;;2.50;99.90;;;;;;5031281;28;20277;-54
2023/12/07 09:48:26;;;;;;;33.03;20.00;;;2.60;99.90;;;;;;5031020;28;20315;-55
2023/12/07 09:50:55;;;;;;;31.50;19.83;;;2.50;99.90;;;;;;5013759;28;20214;-55
2023/12/07 09:53:20;;;;;;;35.83;21.80;;;2.20;99.90;;;;;;5028001;28;20675;-55
2023/12/07 09:55:47;;;;;;;39.03;22.07;;;1.90;99.90;;;;;;5032351;28;20212;-55
2023/12/07 09:58:13;;;;;;;35.90;21.93;;;1.80;99.90;;;;;;5026549;28;20756;-55
2023/12/07 10:00:38;;;;;;;43.10;22.27;;;1.90;99.90;;;;;;5032223;28;20238;-55
2023/12/07 10:03:07;;;;;;;38.23;21.00;;;2.00;99.90;;;;;;5016318;28;20288;-55
2023/12/07 10:05:33;;;;;;;32.90;18.63;;;2.00;99.90;;;;;;5024918;28;20248;-55
2023/12/07 10:07:58;;;;;;;36.40;21.90;;;2.20;99.90;;;;;;5028032;28;20215;-55
2023/12/07 10:10:24;;;;;;;41.07;22.10;;;2.30;99.90;;;;;;5032111;28;20205;-55
2023/12/07 10:12:54;;;;;;;31.50;20.20;;;2.50;99.90;;;;;;5032041;28;20186;-55
2023/12/07 10:15:22;;;;;;;33.27;19.67;;;2.60;99.90;;;;;;5032030;28;20214;-55
2023/12/07 10:17:59;;;;;;;32.53;18.93;;;2.60;99.90;;;;;;5031792;28;20946;-55
2023/12/07 10:20:26;;;;;;;33.67;18.70;;;2.90;99.90;;;;;;5031137;28;20208;-55
2023/12/07 10:23:07;;;;;;;33.57;19.83;;;2.90;99.90;;;;;;5028374;28;20204;-55
2023/12/07 10:25:35;;;;;;;33.50;19.90;;;2.80;99.90;;;;;;5025276;28;20317;-54
2023/12/07 10:28:01;;;;;;;31.23;20.37;;;2.60;99.90;;;;;;5022347;28;20212;-55
2023/12/07 10:30:27;;;;;;;40.27;22.73;;;2.50;99.90;;;;;;5027216;28;20222;-57
2023/12/07 10:32:53;;;;;;;31.13;18.63;;;2.30;99.90;;;;;;5025516;28;20244;-58
2023/12/07 10:35:20;;;;;;;37.90;21.20;;;2.40;99.90;;;;;;5007422;28;20283;-59
2023/12/07 10:37:46;;;;;;;35.00;21.50;;;2.60;99.90;;;;;;5021198;28;20200;-60
2023/12/07 10:40:12;;;;;;;32.70;19.97;;;2.30;99.90;;;;;;5024930;28;20877;-61
2023/12/07 10:42:41;;;;;;;34.53;20.37;;;2.50;99.90;;;;;;5022715;28;20217;-60
2023/12/07 10:45:07;;;;;;;35.30;21.80;;;2.20;99.90;;;;;;5024828;28;20412;-55
2023/12/07 10:47:36;;;;;;;30.03;19.67;;;2.20;99.90;;;;;;5015147;28;20209;-55
2023/12/07 10:50:05;;;;;;;30.50;20.03;;;2.20;99.90;;;;;;5022367;28;20208;-55
2023/12/07 10:52:32;;;;;;;37.27;19.87;;;2.20;99.90;;;;;;5084616;23;20292;-55
2023/12/07 10:55:04;;;;;;;32.27;19.70;;;2.40;99.90;;;;;;5007621;28;20282;-55
2023/12/07 10:57:32;;;;;;;30.93;20.30;;;2.70;99.90;;;;;;5010133;28;20240;-57
2023/12/07 11:00:00;;;;;;;29.37;18.63;;;2.80;99.90;;;;;;5010346;28;20208;-54
2023/12/07 11:02:27;;;;;;;34.20;22.97;;;3.10;99.90;;;;;;5009973;28;20196;-55
2023/12/07 11:04:56;;;;;;;26.47;18.20;;;2.90;99.90;;;;;;5007476;28;20257;-54
2023/12/07 11:07:24;;;;;;;27.73;18.07;;;3.20;99.90;;;;;;4992342;28;20219;-54
2023/12/07 11:10:07;;;;;;;28.47;19.60;;;3.40;99.90;;;;;;5010221;28;20286;-53
2023/12/07 11:12:59;;;;;;;31.47;17.43;;;3.40;99.90;;;;;;5009406;28;20201;-61
2023/12/07 11:15:25;;;;;;;28.00;19.13;;;3.20;99.90;;;;;;5009451;28;20223;-64
2023/12/07 11:17:55;;;;;;;28.83;17.37;;;3.10;99.90;;;;;;4992230;28;20412;-56
2023/12/07 11:20:43;;;;;;;30.60;19.00;;;3.20;99.90;;;;;;4992957;28;20315;-54
2023/12/07 11:23:09;;;;;;;33.20;20.60;;;3.20;99.90;;;;;;5005679;28;20218;-57
2023/12/07 11:25:36;;;;;;;33.47;18.53;;;3.20;99.90;;;;;;4990979;28;20222;-63
2023/12/07 11:28:03;;;;;;;32.20;18.17;;;3.30;99.90;;;;;;4993446;28;20300;-54
2023/12/07 11:30:35;;;;;;;30.70;19.60;;;3.20;99.90;;;;;;5004727;28;20195;-54
2023/12/07 11:33:04;;;;;;;32.60;21.00;;;2.80;99.90;;;;;;5010001;28;20214;-55
2023/12/07 11:35:30;;;;;;;30.63;19.03;;;2.90;99.90;;;;;;5061299;23;20250;-54
2023/12/07 11:38:08;;;;;;;33.57;20.33;;;3.00;99.90;;;;;;4985082;28;20256;-55
2023/12/07 11:40:36;;;;;;;32.33;20.50;;;3.00;99.90;;;;;;4997708;28;20191;-54
2023/12/07 11:43:04;;;;;;;36.10;22.33;;;3.10;99.90;;;;;;4987724;28;20286;-54
2023/12/07 11:45:41;;;;;;;31.43;19.40;;;3.00;99.90;;;;;;4988174;28;20203;-62
2023/12/07 11:48:12;;;;;;;31.90;20.43;;;2.90;99.90;;;;;;5004494;28;20208;-55
2023/12/07 11:50:57;;;;;;;36.53;22.67;;;2.70;99.90;;;;;;5004069;28;20198;-55
2023/12/07 11:53:28;;;;;;;32.37;19.93;;;2.60;99.90;;;;;;5005734;28;20207;-54
2023/12/07 11:55:54;;;;;;;35.17;23.27;;;2.90;99.90;;;;;;5009019;28;20975;-56
2023/12/07 11:58:20;;;;;;;36.77;24.00;;;2.80;99.90;;;;;;5009374;28;20309;-54
2023/12/07 12:00:46;;;;;;;35.77;24.07;;;2.80;99.90;;;;;;5009471;28;20203;-54
2023/12/07 12:03:15;;;;;;;40.83;21.17;;;3.10;99.90;;;;;;5013007;28;20549;-53
2023/12/07 12:05:43;;;;;;;31.97;20.63;;;3.10;99.90;;;;;;5012788;28;20213;-53
2023/12/07 12:08:08;;;;;;;33.13;21.47;;;3.40;99.90;;;;;;5011408;28;20202;-53
2023/12/07 12:10:34;;;;;;;39.87;21.20;;;3.20;99.90;;;;;;5012692;28;20563;-55
2023/12/07 12:13:04;;;;;;;30.90;20.77;;;2.90;99.90;;;;;;5009655;28;20203;-54
2023/12/07 12:15:30;;;;;;;35.70;21.53;;;2.70;99.90;;;;;;5010182;28;20205;-62
2023/12/07 12:17:58;;;;;;;33.77;22.20;;;2.40;99.90;;;;;;5008325;28;20194;-60
2023/12/07 12:20:24;;;;;;;35.93;22.93;;;2.50;99.90;;;;;;5011826;28;20211;-54
2023/12/07 12:22:53;;;;;;;38.83;22.37;;;2.80;99.90;;;;;;5009820;28;20277;-54
2023/12/07 12:25:25;;;;;;;36.10;22.87;;;3.20;99.90;;;;;;5011691;28;20265;-57
2023/12/07 12:27:53;;;;;;;35.97;22.50;;;3.20;99.90;;;;;;5013996;28;20195;-54
2023/12/07 12:30:20;;;;;;;35.53;22.67;;;3.10;99.90;;;;;;5014307;28;20610;-54
2023/12/07 12:32:46;;;;;;;37.10;23.53;;;3.10;99.90;;;;;;5013924;28;20199;-54